Time;durP1;ratioP1;P1;durP2;ratioP2;P2;SDS_P1;SDS_P2;PMS_P1;PMS_P2;Temp;Humidity;BMP_temperature;BMP_pressure;BME280_temperature;BME280_humidity;BME280_pressure;Samples;Min_cycle;Max_cycle;Signal;HPM_P1;HPM_P2
2022/03/06 00:01:36;;;;;;;0.73;0.68;;;;;;;4.93;64.46;101927.16;4966502;28;20031;-60
2022/03/06 00:04:05;;;;;;;1.05;0.90;;;;;;;4.94;65.33;101924.19;4969628;28;20030;-61
2022/03/06 00:06:30;;;;;;;0.82;0.63;;;;;;;4.89;65.41;101936.81;4953083;28;20035;-60
2022/03/06 00:08:56;;;;;;;0.75;0.55;;;;;;;4.82;64.49;101934.47;4967835;28;20039;-60
2022/03/06 00:11:22;;;;;;;2.03;1.20;;;;;;;4.76;65.16;101934.84;4950884;28;20043;-59
2022/03/06 00:13:47;;;;;;;1.23;0.63;;;;;;;4.74;65.45;101932.47;4967562;28;20035;-59
2022/03/06 00:16:13;;;;;;;1.00;0.80;;;;;;;4.72;65.21;101929.28;4969757;28;20096;-61
2022/03/06 00:18:39;;;;;;;1.15;0.80;;;;;;;4.75;66.13;101933.22;4974362;23;20047;-76
2022/03/06 00:21:05;;;;;;;0.57;0.47;;;;;;;4.77;66.13;101936.41;4950212;28;20039;-74
2022/03/06 00:23:30;;;;;;;2.60;0.80;;;;;;;4.76;66.83;101934.84;4956813;28;20407;-74
2022/03/06 00:25:56;;;;;;;0.85;0.80;;;;;;;4.72;66.16;101931.13;4963571;28;20037;-74
2022/03/06 00:28:22;;;;;;;0.57;0.52;;;;;;;4.72;66.71;101929.28;4942530;28;20032;-74
2022/03/06 00:30:48;;;;;;;2.17;1.00;;;;;;;4.74;67.86;101935.13;4944064;28;20547;-74
2022/03/06 00:33:13;;;;;;;2.55;1.00;;;;;;;4.68;67.27;101936.25;4935185;28;20053;-74
2022/03/06 00:35:39;;;;;;;3.40;1.45;;;;;;;4.70;67.97;101928.75;4954812;28;20032;-75
2022/03/06 00:38:04;;;;;;;0.80;0.70;;;;;;;4.70;69.00;101930.63;4931551;29;20039;-75
2022/03/06 00:40:30;;;;;;;3.03;1.15;;;;;;;4.67;68.94;101931.19;4930865;29;20452;-74
2022/03/06 00:42:55;;;;;;;1.17;1.08;;;;;;;4.63;68.51;101925.63;4914561;29;20040;-74
2022/03/06 00:45:21;;;;;;;1.35;0.90;;;;;;;4.61;68.87;101921.66;4913349;29;20493;-74
2022/03/06 00:47:46;;;;;;;1.35;0.98;;;;;;;4.60;68.66;101923.53;4940530;28;20050;-74
2022/03/06 00:50:12;;;;;;;0.65;0.65;;;;;;;4.61;69.25;101919.78;4941830;28;20117;-74
2022/03/06 00:52:39;;;;;;;1.52;0.80;;;;;;;4.62;68.83;101924.03;4936020;28;20515;-74
2022/03/06 00:55:05;;;;;;;1.20;0.70;;;;;;;4.61;69.73;101924.34;4933174;29;20539;-74
2022/03/06 00:57:31;;;;;;;1.70;0.82;;;;;;;4.59;69.45;101929.94;4948742;28;20163;-74
2022/03/06 00:59:56;;;;;;;1.05;0.95;;;;;;;4.59;69.91;101922.72;4930711;29;20028;-74
2022/03/06 01:02:21;;;;;;;2.17;1.13;;;;;;;4.62;69.89;101926.72;4931205;29;20038;-74
2022/03/06 01:04:47;;;;;;;2.65;1.13;;;;;;;4.63;70.11;101922.94;4933643;28;20067;-74
2022/03/06 01:07:12;;;;;;;1.83;1.10;;;;;;;4.61;70.17;101930.44;4951388;28;20058;-74
2022/03/06 01:09:38;;;;;;;1.90;0.75;;;;;;;4.60;70.92;101936.88;4951841;29;20126;-74
2022/03/06 01:12:04;;;;;;;2.45;0.98;;;;;;;4.58;70.83;101942.50;4920454;29;20055;-74
2022/03/06 01:14:29;;;;;;;1.00;0.90;;;;;;;4.56;71.90;101938.50;4922832;28;20044;-74
2022/03/06 01:16:55;;;;;;;0.98;0.88;;;;;;;4.55;71.47;101940.38;4944522;28;20035;-75
2022/03/06 01:19:20;;;;;;;0.90;0.80;;;;;;;4.51;70.76;101935.88;4935296;29;20047;-74
2022/03/06 01:21:46;;;;;;;1.08;0.98;;;;;;;4.49;71.48;101938.06;4940947;29;20031;-74
2022/03/06 01:24:12;;;;;;;2.05;1.27;;;;;;;4.50;71.92;101942.28;4935380;29;20036;-74
2022/03/06 01:26:37;;;;;;;2.53;1.10;;;;;;;4.51;72.04;101946.53;4952641;28;20109;-75
2022/03/06 01:29:04;;;;;;;1.05;0.75;;;;;;;4.49;72.29;101943.38;4941077;28;20043;-75
2022/03/06 01:31:29;;;;;;;1.98;1.17;;;;;;;4.50;71.91;101950.28;4937699;29;20533;-75
2022/03/06 01:33:54;;;;;;;1.00;0.90;;;;;;;4.46;72.59;101946.59;4945515;29;20133;-75
2022/03/06 01:36:20;;;;;;;2.17;0.90;;;;;;;4.41;72.66;101939.44;4937074;29;20036;-75
2022/03/06 01:38:45;;;;;;;3.05;0.80;;;;;;;4.44;72.46;101940.75;4949885;28;20043;-75
2022/03/06 01:41:11;;;;;;;2.15;0.85;;;;;;;4.44;73.09;101943.41;4953725;28;20158;-75
2022/03/06 01:43:36;;;;;;;0.65;0.65;;;;;;;4.42;72.50;101943.72;4940213;28;20042;-75
2022/03/06 01:46:02;;;;;;;2.35;0.93;;;;;;;4.37;72.42;101946.44;4947917;28;20035;-75
2022/03/06 01:48:27;;;;;;;1.73;1.00;;;;;;;4.38;72.51;101942.69;4946376;28;20427;-75
2022/03/06 01:50:52;;;;;;;1.50;1.10;;;;;;;4.34;73.00;101935.50;4955235;28;20062;-75
2022/03/06 01:53:18;;;;;;;1.17;0.73;;;;;;;4.36;72.28;101944.03;4940851;29;20040;-75
2022/03/06 01:55:43;;;;;;;4.03;1.08;;;;;;;4.35;72.78;101937.91;4948604;29;20042;-75
2022/03/06 01:58:11;;;;;;;1.10;0.90;;;;;;;4.35;73.25;101939.78;4945764;28;20042;-75
2022/03/06 02:00:44;;;;;;;2.65;1.10;;;;;;;4.32;72.73;101935.81;4925393;29;20118;-75
2022/03/06 02:03:10;;;;;;;2.13;1.15;;;;;;;4.31;73.00;101939.56;4936522;29;20035;-75
2022/03/06 02:05:36;;;;;;;2.90;1.48;;;;;;;4.28;72.74;101925.97;4937514;29;20035;-75
2022/03/06 02:08:02;;;;;;;1.33;0.70;;;;;;;4.23;73.50;101926.81;4935267;29;20043;-75
2022/03/06 02:10:27;;;;;;;7.00;1.10;;;;;;;4.22;73.25;101925.22;4930666;29;20405;-75
2022/03/06 02:12:53;;;;;;;2.97;1.13;;;;;;;4.23;73.56;101928.69;4925111;29;20035;-75
2022/03/06 02:15:19;;;;;;;1.75;1.10;;;;;;;4.19;74.04;101925.78;4937189;29;20307;-75
2022/03/06 02:17:45;;;;;;;1.63;0.98;;;;;;;4.22;73.56;101929.78;4949584;28;20038;-75
2022/03/06 02:20:19;;;;;;;1.42;1.33;;;;;;;4.23;73.16;101928.69;4946197;29;20055;-75
2022/03/06 02:22:49;;;;;;;3.75;0.93;;;;;;;4.22;74.17;101921.78;4926344;29;20051;-75
2022/03/06 02:25:17;;;;;;;4.22;0.80;;;;;;;4.21;73.43;101925.50;4935617;29;20032;-75
2022/03/06 02:27:42;;;;;;;1.42;1.00;;;;;;;4.19;74.04;101927.66;4945029;28;20046;-75
2022/03/06 02:30:12;;;;;;;1.52;1.20;;;;;;;4.15;74.24;101926.63;4935281;29;20035;-75
2022/03/06 02:32:39;;;;;;;1.02;1.00;;;;;;;4.17;74.82;101927.16;4952420;29;20047;-75
2022/03/06 02:35:07;;;;;;;1.80;1.27;;;;;;;4.14;74.48;101923.16;4938874;28;20039;-75
2022/03/06 02:37:32;;;;;;;1.65;1.00;;;;;;;4.16;74.85;101917.56;4934230;28;20063;-75
2022/03/06 02:40:03;;;;;;;3.83;1.10;;;;;;;4.16;74.36;101912.25;4916960;29;20083;-75
2022/03/06 02:42:31;;;;;;;1.40;1.30;;;;;;;4.11;75.01;101915.72;4939373;29;20055;-75
2022/03/06 02:45:01;;;;;;;2.13;1.00;;;;;;;4.08;75.30;101912.84;4953718;29;20033;-74
2022/03/06 02:47:27;;;;;;;2.80;1.13;;;;;;;4.05;74.90;101916.84;4943208;28;20053;-75
2022/03/06 02:49:53;;;;;;;2.10;0.90;;;;;;;4.05;75.64;101916.84;4945845;28;20027;-75
2022/03/06 02:52:19;;;;;;;1.67;1.05;;;;;;;4.07;75.24;101906.72;4934332;29;20087;-75
2022/03/06 02:54:45;;;;;;;1.80;1.10;;;;;;;4.03;75.40;101912.88;4929890;29;20040;-75
2022/03/06 02:57:12;;;;;;;3.22;1.80;;;;;;;4.02;75.44;101906.75;4915127;29;20060;-75
2022/03/06 02:59:38;;;;;;;2.50;0.98;;;;;;;4.03;76.25;101907.53;4915454;29;20131;-75
2022/03/06 03:02:04;;;;;;;2.13;1.33;;;;;;;4.01;75.97;101899.84;4937651;28;20358;-75
2022/03/06 03:04:31;;;;;;;5.50;1.20;;;;;;;3.95;76.13;101894.84;4949523;29;20039;-75
2022/03/06 03:06:57;;;;;;;3.10;1.48;;;;;;;3.94;76.41;101899.38;4933787;29;20086;-75
2022/03/06 03:09:23;;;;;;;1.48;0.90;;;;;;;3.93;77.10;101902.31;4932228;29;20445;-74
2022/03/06 03:11:54;;;;;;;1.48;1.25;;;;;;;3.93;77.03;101900.44;4916554;29;20074;-75
2022/03/06 03:14:20;;;;;;;1.65;1.15;;;;;;;3.95;76.69;101903.59;4938696;29;20042;-74
2022/03/06 03:16:46;;;;;;;5.20;1.40;;;;;;;3.94;77.26;101898.56;4950359;28;20023;-74
2022/03/06 03:19:11;;;;;;;0.90;0.90;;;;;;;3.94;76.93;101896.69;4956015;28;20381;-74
2022/03/06 03:21:37;;;;;;;2.63;1.02;;;;;;;3.98;77.16;101907.59;4942062;28;20038;-75
2022/03/06 03:24:03;;;;;;;2.35;0.88;;;;;;;3.99;77.09;101904.63;4933797;29;20365;-74
2022/03/06 03:26:28;;;;;;;1.45;1.20;;;;;;;4.01;76.33;101909.69;4930069;29;20028;-75
2022/03/06 03:28:54;;;;;;;1.30;1.02;;;;;;;3.96;76.50;101905.22;4927630;29;20047;-75
2022/03/06 03:31:19;;;;;;;2.58;1.02;;;;;;;3.96;76.44;101909.75;4927275;29;20043;-75
2022/03/06 03:33:45;;;;;;;2.78;1.40;;;;;;;3.94;76.60;101906.56;4945096;29;20042;-74
2022/03/06 03:36:11;;;;;;;1.67;1.20;;;;;;;3.91;77.01;101905.25;4922457;28;20031;-75
2022/03/06 03:38:38;;;;;;;1.45;1.35;;;;;;;3.91;77.00;101905.25;4936310;29;20437;-75
2022/03/06 03:41:04;;;;;;;3.35;1.15;;;;;;;3.94;76.92;101912.69;4953744;28;20042;-75
2022/03/06 03:43:29;;;;;;;3.67;1.30;;;;;;;3.87;77.72;101914.84;4954175;28;20039;-74
2022/03/06 03:45:57;;;;;;;1.38;1.10;;;;;;;3.87;77.56;101920.19;4931158;29;20072;-75
2022/03/06 03:48:25;;;;;;;1.40;1.30;;;;;;;3.89;77.59;101925.25;4930963;29;20046;-74
2022/03/06 03:50:52;;;;;;;1.90;1.17;;;;;;;3.90;77.85;101924.16;4948866;28;20035;-75
2022/03/06 03:53:18;;;;;;;1.35;1.10;;;;;;;3.93;77.92;101929.72;4942057;28;20045;-75
2022/03/06 03:55:43;;;;;;;3.67;1.48;;;;;;;3.95;77.80;101932.16;4941571;29;20031;-74
2022/03/06 03:58:09;;;;;;;1.88;1.00;;;;;;;3.95;77.34;101932.16;4919437;29;20492;-75
2022/03/06 04:00:34;;;;;;;2.63;1.30;;;;;;;3.96;77.53;101923.88;4914109;29;20044;-74
2022/03/06 04:02:59;;;;;;;5.60;1.63;;;;;;;3.97;76.86;101927.34;4916791;29;20407;-75
2022/03/06 04:05:25;;;;;;;2.35;1.40;;;;;;;3.96;76.16;101923.88;4939755;29;20099;-75
2022/03/06 04:07:50;;;;;;;2.38;1.25;;;;;;;3.94;75.95;101927.88;4949336;28;20098;-74
2022/03/06 04:10:15;;;;;;;2.85;1.20;;;;;;;3.92;76.25;101925.50;4940953;29;20069;-75
2022/03/06 04:12:41;;;;;;;1.80;1.08;;;;;;;3.92;76.79;101922.03;4933905;29;20095;-75
2022/03/06 04:15:07;;;;;;;3.78;1.60;;;;;;;3.93;76.53;101923.63;4932930;29;20106;-75
2022/03/06 04:17:32;;;;;;;2.83;1.48;;;;;;;3.93;76.97;101920.97;4934623;29;20031;-75
2022/03/06 04:19:57;;;;;;;3.22;1.23;;;;;;;3.91;76.58;101921.22;4941884;28;20411;-75
2022/03/06 04:22:23;;;;;;;1.85;0.90;;;;;;;3.89;76.85;101927.91;4943496;28;20027;-75
2022/03/06 04:24:48;;;;;;;1.77;1.27;;;;;;;3.91;77.13;101931.09;4918931;29;20039;-75
2022/03/06 04:27:14;;;;;;;2.42;0.95;;;;;;;3.91;76.86;101928.44;4943015;29;20058;-75
2022/03/06 04:29:39;;;;;;;2.15;1.10;;;;;;;3.89;76.60;101927.91;4948696;29;20571;-75
2022/03/06 04:32:05;;;;;;;2.65;1.00;;;;;;;3.86;77.26;101921.28;4947209;29;20031;-75
2022/03/06 04:34:30;;;;;;;2.10;1.20;;;;;;;3.89;77.10;101927.91;4917842;29;20073;-75
2022/03/06 04:36:55;;;;;;;1.67;1.00;;;;;;;3.88;77.04;101935.13;4958165;28;20035;-75
2022/03/06 04:39:21;;;;;;;0.93;0.77;;;;;;;3.88;77.32;101937.78;4932235;29;20036;-75
2022/03/06 04:41:46;;;;;;;2.25;1.17;;;;;;;3.88;77.46;101940.44;4931151;29;20035;-75
2022/03/06 04:44:13;;;;;;;1.50;1.10;;;;;;;3.89;77.25;101949.22;4914726;29;20040;-75
2022/03/06 04:46:39;;;;;;;1.63;1.27;;;;;;;3.81;77.75;101933.84;4937482;29;20031;-75
2022/03/06 04:49:04;;;;;;;2.40;1.10;;;;;;;3.83;77.26;101934.34;4932669;29;20055;-75
2022/03/06 04:51:29;;;;;;;0.75;0.75;;;;;;;3.84;77.15;101936.75;4929094;29;20146;-75
2022/03/06 04:53:55;;;;;;;3.28;0.95;;;;;;;3.85;76.62;101946.34;4944571;28;20035;-75
2022/03/06 04:56:20;;;;;;;1.48;0.60;;;;;;;3.88;76.55;101943.09;4935894;29;20028;-75
2022/03/06 04:58:46;;;;;;;0.80;0.80;;;;;;;3.88;77.41;101943.09;4933418;29;20035;-75
2022/03/06 05:01:11;;;;;;;1.02;0.77;;;;;;;3.86;76.52;101941.78;4947535;28;20039;-75
2022/03/06 05:03:37;;;;;;;2.60;1.15;;;;;;;3.83;76.91;101945.00;4944544;28;20110;-74
2022/03/06 05:06:02;;;;;;;0.88;0.82;;;;;;;3.82;76.87;101944.22;4935694;29;20046;-75
2022/03/06 05:08:28;;;;;;;1.88;0.80;;;;;;;3.78;77.05;101943.16;4938310;29;20046;-75
2022/03/06 05:10:54;;;;;;;1.70;0.85;;;;;;;3.81;76.97;101947.97;4950346;28;20035;-75
2022/03/06 05:13:22;;;;;;;2.78;0.93;;;;;;;3.80;77.19;101957.00;4938701;29;20059;-74
2022/03/06 05:15:47;;;;;;;0.68;0.68;;;;;;;3.81;77.08;101949.81;4931709;29;20032;-75
2022/03/06 05:18:12;;;;;;;1.65;0.85;;;;;;;3.82;77.01;101951.41;4938199;29;20041;-75
2022/03/06 05:20:38;;;;;;;1.52;1.08;;;;;;;3.79;77.67;101941.31;4945666;28;20039;-75
2022/03/06 05:23:04;;;;;;;1.52;0.57;;;;;;;3.79;77.08;101941.31;4954181;29;20031;-75
2022/03/06 05:25:30;;;;;;;0.73;0.50;;;;;;;3.78;76.96;101942.38;4935878;29;20494;-75
2022/03/06 05:27:55;;;;;;;0.95;0.80;;;;;;;3.79;77.02;101934.13;4930664;29;20118;-74
2022/03/06 05:30:21;;;;;;;0.47;0.47;;;;;;;3.78;77.50;101942.38;4916159;29;20032;-75
2022/03/06 05:32:46;;;;;;;0.57;0.57;;;;;;;3.79;77.19;101942.13;4924948;29;20470;-75
2022/03/06 05:35:12;;;;;;;1.15;1.05;;;;;;;3.81;77.06;101937.31;4934626;29;20085;-75
2022/03/06 05:37:38;;;;;;;1.15;0.88;;;;;;;3.82;77.37;101949.53;4970633;28;20031;-74
2022/03/06 05:40:05;;;;;;;0.60;0.60;;;;;;;3.80;77.48;101946.34;4935109;28;20040;-75
2022/03/06 05:42:30;;;;;;;1.00;0.80;;;;;;;3.77;77.89;101944.25;4951566;28;20097;-75
2022/03/06 05:44:56;;;;;;;1.10;0.55;;;;;;;3.77;77.81;101943.47;4955851;28;20048;-75
2022/03/06 05:47:21;;;;;;;0.80;0.80;;;;;;;3.78;78.03;101943.16;4932646;29;20039;-75
2022/03/06 05:49:46;;;;;;;1.23;0.93;;;;;;;3.77;77.18;101940.78;4942953;29;20632;-75
2022/03/06 05:52:12;;;;;;;3.28;1.10;;;;;;;3.76;77.02;101949.84;4947305;28;20049;-75
2022/03/06 05:54:38;;;;;;;1.08;0.70;;;;;;;3.76;77.18;101941.84;4942025;29;20032;-74
2022/03/06 05:57:03;;;;;;;1.17;1.00;;;;;;;3.72;78.13;101948.81;4936725;29;20050;-75
2022/03/06 05:59:29;;;;;;;0.52;0.52;;;;;;;3.71;77.11;101942.69;4924694;29;20043;-75
2022/03/06 06:01:55;;;;;;;0.50;0.50;;;;;;;3.72;77.75;101946.94;4931510;29;20495;-75
2022/03/06 06:04:20;;;;;;;0.68;0.68;;;;;;;3.74;77.72;101954.66;4949554;29;20114;-75
2022/03/06 06:06:45;;;;;;;0.70;0.50;;;;;;;3.74;78.03;101958.09;4951059;28;20040;-75
2022/03/06 06:09:11;;;;;;;1.05;0.88;;;;;;;3.73;77.50;101955.72;4948535;28;20019;-75
2022/03/06 06:11:36;;;;;;;0.82;0.82;;;;;;;3.70;77.69;101961.63;4945363;29;20535;-75
2022/03/06 06:14:03;;;;;;;4.47;1.38;;;;;;;3.68;77.10;101951.22;4925824;29;20040;-75
2022/03/06 06:16:30;;;;;;;1.58;0.80;;;;;;;3.71;76.86;101956.00;4915638;29;20512;-75
2022/03/06 06:18:55;;;;;;;0.93;0.60;;;;;;;3.71;76.88;101963.19;4970467;23;20051;-69
2022/03/06 06:21:21;;;;;;;1.67;0.90;;;;;;;3.68;77.14;101957.34;4953743;28;20575;-69
2022/03/06 06:23:47;;;;;;;0.68;0.68;;;;;;;3.73;76.69;101963.72;4974352;28;20045;-69
2022/03/06 06:26:12;;;;;;;3.05;1.20;;;;;;;3.72;77.53;101959.47;4974514;28;20043;-69
2022/03/06 06:28:38;;;;;;;1.90;1.00;;;;;;;3.76;77.73;101971.94;4964109;28;20729;-69
2022/03/06 06:31:06;;;;;;;0.73;0.68;;;;;;;3.79;77.57;101968.75;4955431;29;20448;-69
2022/03/06 06:33:32;;;;;;;0.82;0.82;;;;;;;3.78;77.84;101969.81;4954551;28;20085;-69
2022/03/06 06:35:58;;;;;;;1.40;0.57;;;;;;;3.78;77.93;101974.31;4967233;28;20487;-69
2022/03/06 06:38:24;;;;;;;0.98;0.88;;;;;;;3.78;77.92;101982.31;4969611;28;20077;-69
2022/03/06 06:40:51;;;;;;;1.25;0.95;;;;;;;3.77;77.92;101980.75;4964118;28;20058;-69
2022/03/06 06:43:17;;;;;;;4.65;1.17;;;;;;;3.78;77.63;101985.78;4961789;28;20440;-69
2022/03/06 06:45:42;;;;;;;3.45;1.83;;;;;;;3.80;77.80;101988.97;4947580;28;20035;-69
2022/03/06 06:48:08;;;;;;;3.30;1.05;;;;;;;3.78;77.29;101990.31;4946710;28;20082;-69
2022/03/06 06:50:33;;;;;;;4.70;1.27;;;;;;;3.79;77.57;101983.94;4966719;28;20062;-69
2022/03/06 06:52:59;;;;;;;3.85;0.95;;;;;;;3.81;77.70;101984.44;4950708;28;20539;-69
2022/03/06 06:55:24;;;;;;;0.82;0.82;;;;;;;3.82;77.19;101988.69;4967808;28;20427;-69
2022/03/06 06:57:49;;;;;;;1.05;0.80;;;;;;;3.83;77.58;101991.09;4965313;28;20041;-69
2022/03/06 07:00:15;;;;;;;1.63;0.88;;;;;;;3.87;77.91;101994.00;4972417;28;20046;-69
2022/03/06 07:02:42;;;;;;;1.45;0.90;;;;;;;3.86;77.92;101979.06;4972041;28;20511;-69
2022/03/06 07:05:09;;;;;;;1.30;0.73;;;;;;;3.85;77.27;101985.50;4974111;28;20030;-69
2022/03/06 07:07:35;;;;;;;1.95;1.00;;;;;;;3.92;77.08;101988.63;4966635;28;20058;-69
2022/03/06 07:10:01;;;;;;;0.88;0.70;;;;;;;3.88;78.01;101995.59;4965027;28;20035;-69
2022/03/06 07:12:26;;;;;;;2.05;0.93;;;;;;;3.93;77.61;102003.56;4969679;28;20169;-69
2022/03/06 07:14:51;;;;;;;1.25;0.85;;;;;;;3.95;77.21;101998.75;4955330;28;20043;-69
2022/03/06 07:17:17;;;;;;;1.30;0.80;;;;;;;3.92;76.89;102002.75;4956428;28;20043;-69
2022/03/06 07:19:42;;;;;;;1.70;1.08;;;;;;;3.95;76.99;102001.41;4946348;29;20042;-69
2022/03/06 07:22:07;;;;;;;1.50;0.93;;;;;;;3.97;77.49;102009.94;4961678;28;20030;-69
2022/03/06 07:24:33;;;;;;;1.55;0.90;;;;;;;4.00;77.24;102009.38;4973367;28;20510;-69
2022/03/06 07:26:58;;;;;;;0.88;0.88;;;;;;;4.05;75.87;102001.31;4973716;28;20039;-69
2022/03/06 07:29:23;;;;;;;1.00;0.90;;;;;;;4.05;76.28;102004.78;4961100;28;20046;-69
2022/03/06 07:31:49;;;;;;;0.77;0.77;;;;;;;4.07;76.61;102002.66;4972087;28;20027;-69
2022/03/06 07:34:14;;;;;;;1.83;0.90;;;;;;;4.09;76.18;102005.84;4973267;28;20101;-69
2022/03/06 07:36:40;;;;;;;1.63;0.80;;;;;;;4.08;75.34;102008.78;4965588;28;20391;-69
2022/03/06 07:39:05;;;;;;;0.85;0.65;;;;;;;4.13;75.19;102003.41;4963268;28;20037;-69
2022/03/06 07:41:30;;;;;;;0.70;0.70;;;;;;;4.11;75.05;102008.22;4971271;28;20081;-69
2022/03/06 07:43:56;;;;;;;2.28;1.13;;;;;;;4.11;74.30;102017.00;4966940;28;20062;-69
2022/03/06 07:46:22;;;;;;;2.35;0.85;;;;;;;4.15;73.74;102018.06;4973098;28;20067;-69
2022/03/06 07:48:47;;;;;;;1.95;0.88;;;;;;;4.19;73.58;102019.09;4971966;28;20578;-69
2022/03/06 07:51:13;;;;;;;1.95;0.75;;;;;;;4.20;73.45;102018.00;4972806;28;20042;-69
2022/03/06 07:53:38;;;;;;;1.80;0.90;;;;;;;4.28;71.97;102017.41;4971972;28;20081;-69
2022/03/06 07:56:04;;;;;;;5.43;0.80;;;;;;;4.28;70.42;102012.06;4964964;28;20062;-69
2022/03/06 07:58:29;;;;;;;1.42;0.90;;;;;;;4.23;69.80;102014.00;4967091;28;20699;-69
2022/03/06 08:00:55;;;;;;;1.58;1.10;;;;;;;4.25;70.53;102014.50;4967754;28;20741;-69
2022/03/06 08:03:20;;;;;;;0.65;0.63;;;;;;;4.29;70.62;102015.53;4967895;28;20030;-69
2022/03/06 08:05:46;;;;;;;0.80;0.65;;;;;;;4.31;69.89;102016.06;4967012;28;20035;-69
2022/03/06 08:08:11;;;;;;;2.95;1.13;;;;;;;4.37;70.02;102012.28;4970175;28;20034;-69
2022/03/06 08:10:36;;;;;;;2.15;1.00;;;;;;;4.44;69.54;102008.22;4955521;28;20043;-69
2022/03/06 08:13:02;;;;;;;4.95;0.88;;;;;;;4.52;68.00;102009.47;4972867;28;20034;-69
2022/03/06 08:15:28;;;;;;;4.00;0.77;;;;;;;4.50;67.44;102014.31;4955452;28;20054;-69
2022/03/06 08:17:53;;;;;;;0.50;0.50;;;;;;;4.57;67.52;102009.44;4937291;28;20042;-69
2022/03/06 08:20:19;;;;;;;2.28;1.17;;;;;;;4.66;67.44;102022.97;4935554;29;20038;-69
2022/03/06 08:22:44;;;;;;;1.52;1.00;;;;;;;4.77;65.75;102032.44;4953657;28;20069;-69
2022/03/06 08:25:10;;;;;;;1.08;0.93;;;;;;;4.85;64.16;102031.84;4952571;28;20567;-69
2022/03/06 08:27:36;;;;;;;0.82;0.77;;;;;;;4.75;63.26;102037.28;4970829;28;20133;-69
2022/03/06 08:30:04;;;;;;;0.85;0.85;;;;;;;4.76;62.89;102038.88;4972473;28;20117;-69
2022/03/06 08:32:30;;;;;;;1.02;0.80;;;;;;;4.77;61.82;102038.59;4971829;28;20153;-69
2022/03/06 08:34:55;;;;;;;0.95;0.80;;;;;;;4.80;62.14;102035.34;4969555;28;20106;-69
2022/03/06 08:37:21;;;;;;;2.22;0.73;;;;;;;4.91;61.62;102047.53;4966744;28;20514;-69
2022/03/06 08:39:47;;;;;;;0.75;0.68;;;;;;;4.91;61.49;102028.06;4952211;29;20041;-69
2022/03/06 08:42:13;;;;;;;1.63;1.20;;;;;;;4.94;61.79;102038.16;4953480;28;20077;-69
2022/03/06 08:44:39;;;;;;;1.30;1.20;;;;;;;5.03;61.08;102033.81;4950602;28;20368;-69
2022/03/06 08:47:05;;;;;;;0.70;0.70;;;;;;;5.07;60.28;102035.59;4959334;28;20043;-69
2022/03/06 08:49:31;;;;;;;2.17;0.85;;;;;;;4.99;60.16;102038.13;4958977;28;20093;-69
2022/03/06 08:51:57;;;;;;;2.03;0.85;;;;;;;4.94;60.45;102041.63;4970153;28;20045;-69
2022/03/06 08:54:22;;;;;;;0.90;0.88;;;;;;;5.14;61.87;102041.41;4950696;28;20035;-69
2022/03/06 08:56:47;;;;;;;4.20;0.98;;;;;;;5.45;61.75;102037.31;4945306;29;20027;-69
2022/03/06 08:59:13;;;;;;;1.00;0.77;;;;;;;5.94;60.14;102039.63;4969971;28;20038;-69
2022/03/06 09:01:39;;;;;;;5.97;0.90;;;;;;;6.25;58.47;102042.66;4951681;28;20096;-69
2022/03/06 09:04:05;;;;;;;1.35;0.95;;;;;;;6.52;57.26;102042.75;4968159;28;20046;-68
2022/03/06 09:06:31;;;;;;;2.08;1.20;;;;;;;6.72;56.30;102036.25;4958648;28;20509;-68
2022/03/06 09:08:56;;;;;;;1.58;0.82;;;;;;;7.02;54.33;102035.72;4964199;28;20097;-68
2022/03/06 09:11:21;;;;;;;1.35;0.80;;;;;;;7.36;53.63;102032.63;4969608;28;20034;-68
2022/03/06 09:13:47;;;;;;;0.90;0.63;;;;;;;7.38;52.23;102033.94;4967138;28;20431;-69
2022/03/06 09:16:12;;;;;;;1.02;0.77;;;;;;;7.60;51.88;102033.22;4962010;28;20097;-69
2022/03/06 09:18:38;;;;;;;1.10;1.00;;;;;;;7.73;50.27;102024.34;4959601;28;20526;-68
2022/03/06 09:21:03;;;;;;;0.95;0.70;;;;;;;7.74;50.66;102016.00;4964412;28;20136;-69
2022/03/06 09:23:29;;;;;;;0.55;0.47;;;;;;;7.87;48.91;102033.97;4943019;28;20404;-69
2022/03/06 09:25:54;;;;;;;1.48;0.60;;;;;;;7.98;48.71;102029.16;4958932;28;20031;-69
2022/03/06 09:28:20;;;;;;;0.70;0.35;;;;;;;8.02;47.08;102030.94;4967243;28;20046;-68
2022/03/06 09:30:46;;;;;;;0.93;0.50;;;;;;;8.13;46.83;102021.53;4969228;28;20062;-69
2022/03/06 09:33:12;;;;;;;0.60;0.60;;;;;;;8.14;46.94;102033.88;4946021;28;20027;-69
2022/03/06 09:35:37;;;;;;;0.80;0.68;;;;;;;8.16;47.34;102029.00;4948512;28;20031;-68
2022/03/06 09:38:03;;;;;;;1.27;0.77;;;;;;;8.22;47.59;102027.00;4968067;28;20038;-69
2022/03/06 09:40:29;;;;;;;0.68;0.68;;;;;;;8.17;47.24;102027.88;4964503;28;20046;-68
2022/03/06 09:42:55;;;;;;;0.90;0.85;;;;;;;8.10;47.35;102032.09;4952412;28;20030;-69
2022/03/06 09:45:23;;;;;;;0.80;0.80;;;;;;;8.17;46.74;102033.25;4951927;28;20054;-69
2022/03/06 09:47:49;;;;;;;3.53;1.00;;;;;;;8.23;46.26;102031.25;4961605;28;20474;-68
2022/03/06 09:50:15;;;;;;;1.10;1.00;;;;;;;8.29;47.40;102030.06;4955668;28;20063;-68
2022/03/06 09:52:41;;;;;;;1.00;0.80;;;;;;;8.32;46.69;102034.84;4959189;28;20027;-69
2022/03/06 09:55:08;;;;;;;1.23;1.00;;;;;;;8.37;46.82;102037.38;4948693;28;20476;-68
2022/03/06 09:57:34;;;;;;;1.45;0.85;;;;;;;8.28;45.86;102038.41;4962312;28;20031;-69
2022/03/06 09:59:59;;;;;;;1.73;0.90;;;;;;;8.19;46.64;102033.75;4967958;28;20042;-69
2022/03/06 10:02:24;;;;;;;1.83;0.90;;;;;;;8.43;46.80;102038.06;4967405;28;20046;-69
2022/03/06 10:04:52;;;;;;;3.17;1.15;;;;;;;8.56;46.55;102037.97;4951604;28;20388;-68
2022/03/06 10:07:21;;;;;;;1.90;0.70;;;;;;;8.57;46.94;102047.63;4966226;28;20027;-68
2022/03/06 10:09:49;;;;;;;0.75;0.73;;;;;;;8.61;46.89;102040.56;4950050;28;20566;-68
2022/03/06 10:12:17;;;;;;;3.10;1.10;;;;;;;8.52;46.89;102050.44;4950768;28;20435;-69
2022/03/06 10:14:44;;;;;;;1.48;0.65;;;;;;;8.59;46.26;102040.06;4953007;28;20034;-68
2022/03/06 10:17:17;;;;;;;1.00;0.90;;;;;;;8.66;45.79;102050.34;4967020;28;20070;-69
2022/03/06 10:19:59;;;;;;;1.45;0.80;;;;;;;8.51;46.50;102054.22;4966837;28;20042;-69
2022/03/06 10:22:30;;;;;;;1.05;0.95;;;;;;;8.52;46.31;102055.00;4967092;28;20030;-69
2022/03/06 10:24:59;;;;;;;1.10;0.75;;;;;;;8.42;45.31;102050.66;4974253;28;20032;-68
2022/03/06 10:27:57;;;;;;;0.68;0.68;;;;;;;8.55;46.12;102055.19;4965567;28;20023;-69
2022/03/06 10:30:32;;;;;;;2.00;0.90;;;;;;;8.81;47.12;102047.28;4959949;28;20034;-68
2022/03/06 10:33:11;;;;;;;0.93;0.80;;;;;;;9.08;47.31;102058.63;4967260;28;20105;-68
2022/03/06 10:35:39;;;;;;;0.73;0.60;;;;;;;9.21;46.28;102042.72;4967644;28;20143;-68
2022/03/06 10:38:26;;;;;;;2.15;1.02;;;;;;;9.02;46.16;102045.63;4958518;28;20035;-68
2022/03/06 10:40:56;;;;;;;1.40;0.93;;;;;;;8.73;46.29;102043.44;4952665;28;20403;-68
2022/03/06 10:43:24;;;;;;;1.00;0.77;;;;;;;8.56;47.08;102048.72;4965875;28;20473;-69
2022/03/06 10:46:06;;;;;;;2.38;1.20;;;;;;;8.40;46.39;102042.13;4949639;28;20880;-68
2022/03/06 10:48:31;;;;;;;3.67;1.00;;;;;;;8.31;47.36;102041.28;4965042;28;20038;-69
2022/03/06 10:51:06;;;;;;;1.95;0.77;;;;;;;8.40;46.84;102036.75;4944400;28;20610;-68
2022/03/06 10:53:31;;;;;;;1.63;1.05;;;;;;;8.40;46.61;102050.19;4952852;28;20451;-68
2022/03/06 10:56:11;;;;;;;1.27;0.90;;;;;;;8.42;46.26;102056.03;4967212;28;20050;-68
2022/03/06 10:58:42;;;;;;;4.53;1.00;;;;;;;8.41;47.50;102053.66;4960685;28;20947;-68
2022/03/06 11:01:07;;;;;;;2.50;1.02;;;;;;;8.39;47.38;102051.28;4956951;28;20034;-69
2022/03/06 11:03:35;;;;;;;1.13;0.80;;;;;;;8.30;48.38;102034.34;4945315;28;20030;-68
2022/03/06 11:06:09;;;;;;;1.05;0.95;;;;;;;8.37;47.81;102047.31;4958646;28;20046;-68
2022/03/06 11:08:36;;;;;;;4.15;1.50;;;;;;;8.40;46.89;102044.81;4961943;28;20479;-69
2022/03/06 11:11:04;;;;;;;1.10;0.85;;;;;;;8.43;47.48;102040.72;4962750;28;20125;-68
2022/03/06 11:13:30;;;;;;;1.50;0.88;;;;;;;8.57;47.29;102039.59;4956932;28;20054;-68
2022/03/06 11:15:56;;;;;;;0.82;0.73;;;;;;;8.65;46.59;102032.69;4962487;28;20403;-69
2022/03/06 11:18:26;;;;;;;0.90;0.80;;;;;;;8.92;47.07;102035.97;4956653;28;20089;-68
2022/03/06 11:20:58;;;;;;;1.92;1.08;;;;;;;9.05;46.66;102035.09;4954814;28;20540;-68
2022/03/06 11:23:44;;;;;;;2.15;1.08;;;;;;;9.04;46.33;102043.44;4964060;28;21271;-68
2022/03/06 11:26:09;;;;;;;1.30;0.90;;;;;;;8.88;46.24;102032.31;4963704;28;20039;-67
2022/03/06 11:29:17;;;;;;;1.73;1.00;;;;;;;8.71;47.98;102037.59;4962234;28;20159;-67
2022/03/06 11:31:43;;;;;;;2.10;1.23;;;;;;;8.59;47.76;102033.91;4860120;29;20081;-68